Time;durP1;ratioP1;P1;durP2;ratioP2;P2;SDS_P1;SDS_P2;PMS_P1;PMS_P2;Temp;Humidity;BMP_temperature;BMP_pressure;BME280_temperature;BME280_humidity;BME280_pressure;Samples;Min_cycle;Max_cycle;Signal;HPM_P1;HPM_P2
2022/12/02 08:31:51;;;;;;;39.72;13.93;;;;;;;;;;4867875;29;20054;-79
2022/12/02 08:34:17;;;;;;;37.95;13.98;;;;;;;;;;4878745;29;20068;-79
2022/12/02 08:36:44;;;;;;;36.33;13.52;;;;;;;;;;4881087;29;20045;-78
2022/12/02 08:39:10;;;;;;;37.90;13.10;;;;;;;;;;4886487;29;20065;-76
2022/12/02 08:41:37;;;;;;;42.13;13.75;;;;;;;;;;4877374;29;20063;-77
2022/12/02 08:44:04;;;;;;;43.30;15.38;;;;;;;;;;4866325;29;20116;-78
2022/12/02 08:46:30;;;;;;;37.05;13.77;;;;;;;;;;4871266;29;20057;-76
2022/12/02 08:48:57;;;;;;;43.05;14.55;;;;;;;;;;4886831;29;20056;-77
2022/12/02 08:51:23;;;;;;;33.05;13.32;;;;;;;;;;4881083;29;20140;-77
2022/12/02 08:53:49;;;;;;;35.88;12.90;;;;;;;;;;4884391;29;20056;-77
2022/12/02 08:56:16;;;;;;;37.70;13.88;;;;;;;;;;4883753;29;20068;-77
2022/12/02 08:58:42;;;;;;;40.35;13.73;;;;;;;;;;4870231;29;20061;-77
2022/12/02 09:01:08;;;;;;;40.42;14.13;;;;;;;;;;4874463;29;20061;-77
2022/12/02 09:03:35;;;;;;;41.42;13.82;;;;;;;;;;4887808;29;20085;-77
2022/12/02 09:06:01;;;;;;;35.95;13.38;;;;;;;;;;4882772;29;20061;-77
2022/12/02 09:08:27;;;;;;;37.08;13.35;;;;;;;;;;4883388;29;20061;-77
2022/12/02 09:10:54;;;;;;;43.25;14.85;;;;;;;;;;4891830;29;20144;-77
2022/12/02 09:13:20;;;;;;;43.42;13.45;;;;;;;;;;4876636;29;20497;-76
2022/12/02 09:15:47;;;;;;;34.63;12.93;;;;;;;;;;4873094;29;20061;-78
2022/12/02 09:18:13;;;;;;;31.05;11.70;;;;;;;;;;4885194;29;20113;-78
2022/12/02 09:20:40;;;;;;;38.20;13.57;;;;;;;;;;4876419;29;20584;-78
2022/12/02 09:23:06;;;;;;;32.65;11.85;;;;;;;;;;4898239;29;20057;-79
2022/12/02 09:25:32;;;;;;;36.05;12.48;;;;;;;;;;4869198;29;20059;-79
2022/12/02 09:27:59;;;;;;;41.03;12.73;;;;;;;;;;4881042;29;20186;-79
2022/12/02 09:30:25;;;;;;;33.72;13.10;;;;;;;;;;4873106;29;20068;-79
2022/12/02 09:32:51;;;;;;;41.17;13.25;;;;;;;;;;4891932;29;20056;-79
2022/12/02 09:35:18;;;;;;;38.80;13.15;;;;;;;;;;4889599;29;20144;-79
2022/12/02 09:37:44;;;;;;;35.67;13.55;;;;;;;;;;4888807;29;20117;-79
2022/12/02 09:40:11;;;;;;;34.70;12.68;;;;;;;;;;4880973;29;20168;-79
2022/12/02 09:42:37;;;;;;;35.50;13.15;;;;;;;;;;4879627;29;20063;-79
2022/12/02 09:45:03;;;;;;;32.75;11.73;;;;;;;;;;4885337;29;20792;-78
2022/12/02 09:47:30;;;;;;;39.10;13.43;;;;;;;;;;4875342;29;20049;-79
2022/12/02 09:49:56;;;;;;;38.80;13.02;;;;;;;;;;4886916;29;20049;-78
2022/12/02 09:52:24;;;;;;;38.53;12.38;;;;;;;;;;4881717;29;20136;-78
2022/12/02 09:54:52;;;;;;;36.33;13.43;;;;;;;;;;4874563;29;20057;-78
2022/12/02 09:57:19;;;;;;;37.28;12.65;;;;;;;;;;4891957;29;20507;-79
2022/12/02 09:59:46;;;;;;;36.58;12.82;;;;;;;;;;4891388;29;20425;-79
2022/12/02 10:02:32;;;;;;;36.17;12.52;;;;;;;;;;4873495;29;20140;-78
2022/12/02 10:05:02;;;;;;;32.22;11.35;;;;;;;;;;4870948;29;20099;-79
2022/12/02 10:07:29;;;;;;;39.05;12.75;;;;;;;;;;4889216;29;20124;-79
2022/12/02 10:09:55;;;;;;;34.45;12.82;;;;;;;;;;4871589;29;20478;-79
2022/12/02 10:12:22;;;;;;;37.38;13.20;;;;;;;;;;4865774;29;21104;-79
2022/12/02 10:14:50;;;;;;;33.08;12.90;;;;;;;;;;4876741;29;20105;-78
2022/12/02 10:17:19;;;;;;;38.53;12.75;;;;;;;;;;4885781;29;20067;-77
2022/12/02 10:19:45;;;;;;;38.45;12.85;;;;;;;;;;4889248;29;20148;-77
2022/12/02 10:22:13;;;;;;;38.17;13.35;;;;;;;;;;4872791;29;20153;-77
2022/12/02 10:24:39;;;;;;;38.58;12.65;;;;;;;;;;4872940;29;20089;-76
2022/12/02 10:27:07;;;;;;;38.28;13.77;;;;;;;;;;4878968;29;20057;-77
2022/12/02 10:29:33;;;;;;;37.20;13.27;;;;;;;;;;4879205;29;20067;-77
2022/12/02 10:32:01;;;;;;;40.15;13.77;;;;;;;;;;4893246;29;20177;-77
2022/12/02 10:34:28;;;;;;;38.30;13.20;;;;;;;;;;4869839;29;20409;-77
2022/12/02 10:36:55;;;;;;;36.83;12.40;;;;;;;;;;4881295;29;20057;-77
2022/12/02 10:39:23;;;;;;;35.20;13.43;;;;;;;;;;4879703;29;20065;-77
2022/12/02 10:42:01;;;;;;;38.95;13.05;;;;;;;;;;4885757;29;20061;-77
2022/12/02 10:44:28;;;;;;;39.13;13.20;;;;;;;;;;4889514;29;20143;-76
2022/12/02 10:47:08;;;;;;;37.08;12.68;;;;;;;;;;4887381;29;20163;-77
2022/12/02 10:49:35;;;;;;;38.75;13.00;;;;;;;;;;4886242;29;20057;-77
2022/12/02 10:52:09;;;;;;;43.42;14.23;;;;;;;;;;4893550;29;20057;-76
2022/12/02 10:54:37;;;;;;;38.40;12.50;;;;;;;;;;4888331;29;20092;-76
2022/12/02 10:57:24;;;;;;;37.53;13.85;;;;;;;;;;4886178;29;20069;-77
2022/12/02 10:59:50;;;;;;;;;;;;;;;;;;4886468;29;20142;-76
2022/12/02 11:02:18;;;;;;;40.13;13.40;;;;;;;;;;4871914;29;48210;-76
2022/12/02 11:04:45;;;;;;;37.58;12.45;;;;;;;;;;4886970;29;20559;-77
2022/12/02 11:07:14;;;;;;;42.42;12.90;;;;;;;;;;4887472;29;20049;-77
2022/12/02 11:09:43;;;;;;;39.78;14.27;;;;;;;;;;4883371;29;20701;-77
2022/12/02 11:12:28;;;;;;;39.40;13.60;;;;;;;;;;4888188;29;20135;-77
2022/12/02 11:14:55;;;;;;;38.78;13.73;;;;;;;;;;4871640;29;20056;-77
2022/12/02 11:17:40;;;;;;;48.13;13.95;;;;;;;;;;4873156;29;20068;-77
2022/12/02 11:20:28;;;;;;;45.42;14.35;;;;;;;;;;4871548;29;21005;-76
2022/12/02 11:22:57;;;;;;;42.95;14.27;;;;;;;;;;4872628;29;20514;-77
2022/12/02 11:25:42;;;;;;;44.40;15.35;;;;;;;;;;4886158;29;20080;-76
2022/12/02 11:28:18;;;;;;;47.50;15.88;;;;;;;;;;4883357;29;20058;-77
2022/12/02 11:30:45;;;;;;;41.75;14.40;;;;;;;;;;4881288;29;20163;-77
2022/12/02 11:33:13;;;;;;;44.50;14.25;;;;;;;;;;4875564;29;20065;-77
2022/12/02 11:35:58;;;;;;;44.83;13.95;;;;;;;;;;4871573;29;20100;-77
2022/12/02 11:38:25;;;;;;;44.40;14.82;;;;;;;;;;4847598;29;20065;-77
2022/12/02 11:40:51;;;;;;;49.10;14.07;;;;;;;;;;4863841;29;20176;-77
2022/12/02 11:43:36;;;;;;;45.35;14.07;;;;;;;;;;4865912;29;20140;-77
2022/12/02 11:46:04;;;;;;;47.88;15.65;;;;;;;;;;4850456;29;20057;-77
2022/12/02 11:48:30;;;;;;;47.67;14.55;;;;;;;;;;4848629;29;20062;-77
2022/12/02 11:50:56;;;;;;;47.72;16.67;;;;;;;;;;4864597;29;20270;-77
2022/12/02 11:53:23;;;;;;;41.33;15.27;;;;;;;;;;4867994;29;20057;-77
2022/12/02 11:55:50;;;;;;;47.47;15.30;;;;;;;;;;4870190;29;20052;-77
2022/12/02 11:58:17;;;;;;;48.92;16.33;;;;;;;;;;4849862;29;20148;-78
2022/12/02 12:01:03;;;;;;;47.10;16.00;;;;;;;;;;4866474;29;20094;-77
2022/12/02 12:03:29;;;;;;;44.75;15.48;;;;;;;;;;4855453;29;20718;-77
2022/12/02 12:06:05;;;;;;;52.75;17.08;;;;;;;;;;4838805;29;20098;-77
2022/12/02 12:08:31;;;;;;;52.72;16.60;;;;;;;;;;4869575;29;20109;-77
2022/12/02 12:11:16;;;;;;;54.55;17.50;;;;;;;;;;4879739;29;20061;-77
2022/12/02 12:14:02;;;;;;;49.17;15.75;;;;;;;;;;4853587;29;20169;-77
2022/12/02 12:16:31;;;;;;;57.03;16.08;;;;;;;;;;4867847;29;20060;-76
2022/12/02 12:18:58;;;;;;;46.42;15.52;;;;;;;;;;4848668;29;20065;-76
2022/12/02 12:21:29;;;;;;;43.55;15.27;;;;;;;;;;4849388;29;20545;-77
2022/12/02 12:24:14;;;;;;;44.92;16.52;;;;;;;;;;4849392;29;20141;-76
2022/12/02 12:26:42;;;;;;;42.28;14.02;;;;;;;;;;4879190;29;20057;-77
2022/12/02 12:29:08;;;;;;;44.42;14.98;;;;;;;;;;4855945;29;20142;-76
2022/12/02 12:31:34;;;;;;;42.47;13.75;;;;;;;;;;4852546;29;20572;-76
2022/12/02 12:34:04;;;;;;;42.22;15.13;;;;;;;;;;4848305;29;20062;-77
2022/12/02 12:36:31;;;;;;;43.72;13.25;;;;;;;;;;4856507;29;20903;-76
2022/12/02 12:38:57;;;;;;;42.42;14.38;;;;;;;;;;4850740;29;20062;-76
2022/12/02 12:41:24;;;;;;;37.17;11.63;;;;;;;;;;4850133;29;20070;-76
2022/12/02 12:44:10;;;;;;;36.25;13.77;;;;;;;;;;4865717;29;20065;-76
2022/12/02 12:46:36;;;;;;;40.00;13.90;;;;;;;;;;4864704;29;20499;-77
2022/12/02 12:49:03;;;;;;;41.42;13.80;;;;;;;;;;4868357;29;20575;-77
2022/12/02 12:51:30;;;;;;;42.08;13.05;;;;;;;;;;4868215;29;20496;-76
2022/12/02 12:53:56;;;;;;;39.47;12.98;;;;;;;;;;4869571;29;20122;-76
2022/12/02 12:56:23;;;;;;;40.17;12.88;;;;;;;;;;4848134;29;20058;-76
2022/12/02 12:58:49;;;;;;;34.58;12.15;;;;;;;;;;4851841;29;20088;-77
2022/12/02 13:01:15;;;;;;;32.70;12.55;;;;;;;;;;4847109;29;20165;-77
2022/12/02 13:03:49;;;;;;;33.85;11.73;;;;;;;;;;4865791;29;20050;-77
2022/12/02 13:06:15;;;;;;;32.65;11.48;;;;;;;;;;4871200;29;20061;-79
2022/12/02 13:08:42;;;;;;;40.00;13.32;;;;;;;;;;4858910;29;20042;-78
2022/12/02 13:11:08;;;;;;;35.55;11.40;;;;;;;;;;4849620;29;20061;-77
2022/12/02 13:13:34;;;;;;;36.72;12.73;;;;;;;;;;4858342;29;20057;-77
2022/12/02 13:16:00;;;;;;;39.65;13.73;;;;;;;;;;4864010;29;20061;-78
2022/12/02 13:18:27;;;;;;;38.45;12.50;;;;;;;;;;4845325;29;20061;-77
2022/12/02 13:20:53;;;;;;;29.75;11.05;;;;;;;;;;4853977;29;20054;-78
2022/12/02 13:23:19;;;;;;;34.80;11.57;;;;;;;;;;4844844;29;20053;-77
2022/12/02 13:25:46;;;;;;;35.97;12.18;;;;;;;;;;4848988;29;20663;-78
2022/12/02 13:28:12;;;;;;;29.27;10.43;;;;;;;;;;4886381;29;20088;-77
2022/12/02 13:30:38;;;;;;;30.13;10.40;;;;;;;;;;4872925;29;20065;-78
2022/12/02 13:33:08;;;;;;;29.92;9.60;;;;;;;;;;4882569;29;20057;-77
2022/12/02 13:35:34;;;;;;;28.52;9.60;;;;;;;;;;4885961;29;20052;-77
2022/12/02 13:38:00;;;;;;;26.90;9.48;;;;;;;;;;4891262;29;20052;-77
2022/12/02 13:40:27;;;;;;;26.73;9.13;;;;;;;;;;4901650;29;20071;-77
2022/12/02 13:42:54;;;;;;;23.55;8.38;;;;;;;;;;4906031;29;20060;-77
2022/12/02 13:45:20;;;;;;;24.50;8.93;;;;;;;;;;4892660;29;20064;-78
2022/12/02 13:47:46;;;;;;;28.77;9.38;;;;;;;;;;4872858;29;20060;-78
2022/12/02 13:50:13;;;;;;;26.10;9.23;;;;;;;;;;4873180;29;20075;-77
2022/12/02 13:52:39;;;;;;;26.20;8.07;;;;;;;;;;4890456;29;20089;-77
2022/12/02 13:55:06;;;;;;;27.63;9.30;;;;;;;;;;4872881;29;20517;-77
2022/12/02 13:57:32;;;;;;;24.30;8.45;;;;;;;;;;4888549;29;20112;-77
2022/12/02 13:59:58;;;;;;;26.85;9.00;;;;;;;;;;4908675;29;20060;-77
2022/12/02 14:02:25;;;;;;;24.13;7.72;;;;;;;;;;4902556;29;20081;-77
2022/12/02 14:04:51;;;;;;;23.55;7.72;;;;;;;;;;4871113;29;20065;-78
2022/12/02 14:07:18;;;;;;;19.05;7.00;;;;;;;;;;4876688;29;20223;-78
2022/12/02 14:09:44;;;;;;;19.98;7.25;;;;;;;;;;4890242;29;20068;-78
2022/12/02 14:12:12;;;;;;;18.80;6.65;;;;;;;;;;4887345;29;20143;-78
2022/12/02 14:14:39;;;;;;;22.23;7.47;;;;;;;;;;4871790;29;20053;-79
2022/12/02 14:17:05;;;;;;;26.10;6.65;;;;;;;;;;4890873;29;20065;-78
2022/12/02 14:19:32;;;;;;;21.63;6.78;;;;;;;;;;4885746;29;20512;-78
2022/12/02 14:21:58;;;;;;;25.98;7.97;;;;;;;;;;4883921;29;20068;-77
2022/12/02 14:24:24;;;;;;;26.20;7.75;;;;;;;;;;4889148;29;20088;-77
2022/12/02 14:26:51;;;;;;;21.77;7.28;;;;;;;;;;4871410;29;20057;-77
2022/12/02 14:29:17;;;;;;;18.33;6.88;;;;;;;;;;4889012;29;20064;-77
2022/12/02 14:31:43;;;;;;;19.35;6.80;;;;;;;;;;4866616;29;20068;-77
2022/12/02 14:34:10;;;;;;;21.40;7.05;;;;;;;;;;4844155;29;20096;-77
2022/12/02 14:36:39;;;;;;;22.23;7.32;;;;;;;;;;4865036;29;20084;-78
2022/12/02 14:39:06;;;;;;;20.58;7.85;;;;;;;;;;4866072;29;20066;-77
2022/12/02 14:41:32;;;;;;;21.55;7.85;;;;;;;;;;4855367;29;20072;-77
2022/12/02 14:43:58;;;;;;;20.50;7.75;;;;;;;;;;4856138;29;20068;-77
2022/12/02 14:46:25;;;;;;;21.10;7.75;;;;;;;;;;4860856;29;20104;-77
2022/12/02 14:48:51;;;;;;;22.73;7.93;;;;;;;;;;4867730;29;20073;-77
2022/12/02 14:51:32;;;;;;;24.95;8.15;;;;;;;;;;4871458;29;20061;-77
2022/12/02 14:53:58;;;;;;;25.30;9.40;;;;;;;;;;4862859;29;20144;-77
2022/12/02 14:56:25;;;;;;;24.58;9.60;;;;;;;;;;4854196;29;20057;-77
2022/12/02 14:58:51;;;;;;;26.15;10.35;;;;;;;;;;4850934;29;20182;-77
2022/12/02 15:01:17;;;;;;;26.98;9.90;;;;;;;;;;4884385;29;20783;-77
2022/12/02 15:03:44;;;;;;;28.98;10.60;;;;;;;;;;4887580;29;20057;-77
2022/12/02 15:06:10;;;;;;;28.35;11.27;;;;;;;;;;4859248;29;20532;-77
2022/12/02 15:08:36;;;;;;;27.02;11.55;;;;;;;;;;4870928;29;20070;-77
2022/12/02 15:11:03;;;;;;;38.08;11.68;;;;;;;;;;4853492;29;20061;-77
2022/12/02 15:13:29;;;;;;;29.35;12.27;;;;;;;;;;4851722;29;20061;-77
2022/12/02 15:15:55;;;;;;;35.35;12.52;;;;;;;;;;4870657;29;20064;-77
2022/12/02 15:18:28;;;;;;;37.63;12.02;;;;;;;;;;4871068;29;20440;-77
2022/12/02 15:20:55;;;;;;;36.33;12.98;;;;;;;;;;4871274;29;20203;-77
2022/12/02 15:23:21;;;;;;;35.55;13.43;;;;;;;;;;4855139;29;20070;-77
2022/12/02 15:25:47;;;;;;;43.72;15.95;;;;;;;;;;4852844;29;20287;-77
2022/12/02 15:28:14;;;;;;;40.70;15.15;;;;;;;;;;4849448;29;20157;-77
2022/12/02 15:30:40;;;;;;;45.08;15.18;;;;;;;;;;4850489;29;20156;-79
2022/12/02 15:33:06;;;;;;;50.83;16.63;;;;;;;;;;4882354;29;20576;-80
2022/12/02 15:35:33;;;;;;;49.28;16.27;;;;;;;;;;4884896;29;20060;-78
2022/12/02 15:37:59;;;;;;;47.97;16.33;;;;;;;;;;4864973;29;20064;-77
2022/12/02 15:40:25;;;;;;;49.35;17.30;;;;;;;;;;4886975;29;20060;-77
2022/12/02 15:42:52;;;;;;;48.35;17.73;;;;;;;;;;4885365;29;20057;-78
2022/12/02 15:45:18;;;;;;;39.28;15.43;;;;;;;;;;4882112;29;20484;-77
2022/12/02 15:47:44;;;;;;;48.10;17.42;;;;;;;;;;4859659;29;20485;-77
2022/12/02 15:50:11;;;;;;;45.55;16.13;;;;;;;;;;4868567;29;20061;-77
2022/12/02 15:52:37;;;;;;;60.50;20.35;;;;;;;;;;4885402;29;20143;-78
2022/12/02 15:55:04;;;;;;;57.60;19.27;;;;;;;;;;4891296;29;20064;-77
2022/12/02 15:57:30;;;;;;;52.97;18.55;;;;;;;;;;4871707;29;20157;-77
2022/12/02 15:59:56;;;;;;;63.33;19.58;;;;;;;;;;4882705;29;20058;-76
2022/12/02 16:02:23;;;;;;;55.40;20.50;;;;;;;;;;4884073;29;20061;-77
2022/12/02 16:04:49;;;;;;;61.10;20.95;;;;;;;;;;4883161;29;20084;-77
2022/12/02 16:07:17;;;;;;;60.45;20.40;;;;;;;;;;4889059;29;20771;-77
2022/12/02 16:09:44;;;;;;;59.85;20.65;;;;;;;;;;4871390;29;20581;-77
2022/12/02 16:12:10;;;;;;;61.40;21.38;;;;;;;;;;4872147;29;20056;-77
2022/12/02 16:14:36;;;;;;;60.65;20.88;;;;;;;;;;4885241;29;21631;-77
2022/12/02 16:17:03;;;;;;;64.10;21.58;;;;;;;;;;4886923;29;20057;-77
2022/12/02 16:19:29;;;;;;;61.28;21.30;;;;;;;;;;4884779;29;20141;-77
2022/12/02 16:21:55;;;;;;;60.75;21.90;;;;;;;;;;4869072;29;20061;-77
2022/12/02 16:24:22;;;;;;;58.97;20.70;;;;;;;;;;4882822;29;20057;-76
2022/12/02 16:26:48;;;;;;;62.30;22.05;;;;;;;;;;4869034;29;20473;-76
2022/12/02 16:29:20;;;;;;;59.05;21.10;;;;;;;;;;4889597;29;20607;-76
2022/12/02 16:31:47;;;;;;;61.78;20.60;;;;;;;;;;4878709;29;20061;-77
2022/12/02 16:34:13;;;;;;;59.88;22.30;;;;;;;;;;4867327;29;20465;-77
2022/12/02 16:36:39;;;;;;;62.63;21.98;;;;;;;;;;4871591;29;20087;-77
2022/12/02 16:39:08;;;;;;;64.35;22.30;;;;;;;;;;4884050;29;20735;-77
2022/12/02 16:41:34;;;;;;;64.45;22.33;;;;;;;;;;4876178;29;20060;-77
2022/12/02 16:44:01;;;;;;;59.33;21.75;;;;;;;;;;4869744;29;20072;-77
2022/12/02 16:46:27;;;;;;;59.75;21.45;;;;;;;;;;4887219;29;20102;-77
2022/12/02 16:48:54;;;;;;;64.22;22.98;;;;;;;;;;4869325;29;20209;-77
2022/12/02 16:51:20;;;;;;;62.35;21.77;;;;;;;;;;4865023;29;20609;-77
2022/12/02 16:53:47;;;;;;;64.25;23.30;;;;;;;;;;4860158;29;20061;-78
2022/12/02 16:56:13;;;;;;;58.90;20.55;;;;;;;;;;4883234;29;20129;-77
2022/12/02 16:58:39;;;;;;;53.83;18.90;;;;;;;;;;4887134;29;20056;-77
2022/12/02 17:01:06;;;;;;;51.22;18.75;;;;;;;;;;4888064;29;20049;-76
2022/12/02 17:03:32;;;;;;;51.47;18.20;;;;;;;;;;4885473;29;20513;-77
2022/12/02 17:05:58;;;;;;;56.90;19.63;;;;;;;;;;4886192;29;20460;-77
2022/12/02 17:08:25;;;;;;;50.75;19.10;;;;;;;;;;4869280;29;20117;-77
2022/12/02 17:10:51;;;;;;;48.80;18.08;;;;;;;;;;4869911;29;21028;-77
2022/12/02 17:13:18;;;;;;;52.42;19.05;;;;;;;;;;4869805;29;20135;-77
2022/12/02 17:15:44;;;;;;;49.47;19.35;;;;;;;;;;4869224;29;20077;-77
2022/12/02 17:18:10;;;;;;;49.95;18.52;;;;;;;;;;4870641;29;20508;-77
2022/12/02 17:20:36;;;;;;;48.33;17.85;;;;;;;;;;4891226;29;20668;-77
2022/12/02 17:23:03;;;;;;;46.85;18.27;;;;;;;;;;4890729;29;20072;-77
2022/12/02 17:25:29;;;;;;;50.58;18.92;;;;;;;;;;4888433;29;20058;-77
2022/12/02 17:27:55;;;;;;;50.03;17.75;;;;;;;;;;4878623;29;20511;-77
2022/12/02 17:30:22;;;;;;;46.60;18.02;;;;;;;;;;4875359;29;20065;-77
2022/12/02 17:32:48;;;;;;;52.78;18.60;;;;;;;;;;4882051;29;20136;-77
2022/12/02 17:35:22;;;;;;;42.45;16.23;;;;;;;;;;4872563;29;20053;-76
2022/12/02 17:37:48;;;;;;;49.90;17.23;;;;;;;;;;4871525;29;20247;-77
2022/12/02 17:40:14;;;;;;;51.70;17.77;;;;;;;;;;4871242;29;20065;-77
2022/12/02 17:42:41;;;;;;;43.80;16.50;;;;;;;;;;4891902;29;20417;-77
2022/12/02 17:45:07;;;;;;;52.78;17.88;;;;;;;;;;4887480;29;20058;-77
2022/12/02 17:47:34;;;;;;;45.08;16.35;;;;;;;;;;4878700;29;20465;-77
2022/12/02 17:50:00;;;;;;;46.25;17.20;;;;;;;;;;4884822;29;20615;-77
2022/12/02 17:52:27;;;;;;;46.28;17.55;;;;;;;;;;4879342;29;20183;-77
2022/12/02 17:54:53;;;;;;;46.72;17.38;;;;;;;;;;4873724;29;20061;-77
2022/12/02 17:57:20;;;;;;;50.45;17.95;;;;;;;;;;4888325;29;20089;-77
2022/12/02 17:59:49;;;;;;;49.33;18.75;;;;;;;;;;4881810;29;20080;-77
2022/12/02 18:02:16;;;;;;;51.72;17.70;;;;;;;;;;4878979;29;20071;-77
2022/12/02 18:04:43;;;;;;;49.38;17.92;;;;;;;;;;4899944;29;20064;-77
2022/12/02 18:07:10;;;;;;;51.45;18.02;;;;;;;;;;4872848;29;20135;-77
2022/12/02 18:09:37;;;;;;;49.88;17.48;;;;;;;;;;4872537;29;20552;-77
2022/12/02 18:12:04;;;;;;;46.33;18.05;;;;;;;;;;4888189;29;20096;-77
2022/12/02 18:14:30;;;;;;;45.45;17.63;;;;;;;;;;4896219;29;20057;-77
2022/12/02 18:16:56;;;;;;;49.70;18.02;;;;;;;;;;4887624;29;20057;-77
2022/12/02 18:19:23;;;;;;;43.13;16.48;;;;;;;;;;4880228;29;20136;-76
2022/12/02 18:21:49;;;;;;;45.80;17.25;;;;;;;;;;4888805;29;20626;-77
2022/12/02 18:24:15;;;;;;;45.70;17.27;;;;;;;;;;4885548;29;20053;-77
2022/12/02 18:26:42;;;;;;;46.38;18.13;;;;;;;;;;4896026;29;20061;-77
2022/12/02 18:29:08;;;;;;;46.75;17.58;;;;;;;;;;4870983;29;20065;-77
2022/12/02 18:31:35;;;;;;;43.20;16.65;;;;;;;;;;4880859;29;20135;-77
2022/12/02 18:34:01;;;;;;;42.13;16.63;;;;;;;;;;4893723;29;20092;-77
2022/12/02 18:36:28;;;;;;;46.58;17.15;;;;;;;;;;4882003;29;20061;-78
2022/12/02 18:38:54;;;;;;;42.42;15.70;;;;;;;;;;4883434;29;20049;-76
2022/12/02 18:41:20;;;;;;;44.78;17.88;;;;;;;;;;4887105;29;20350;-76
2022/12/02 18:43:47;;;;;;;41.20;16.65;;;;;;;;;;4885470;29;20516;-77
2022/12/02 18:46:18;;;;;;;43.58;15.88;;;;;;;;;;4872267;29;20532;-76
2022/12/02 18:48:45;;;;;;;42.75;16.02;;;;;;;;;;4893518;29;20056;-77
2022/12/02 18:51:17;;;;;;;44.33;17.23;;;;;;;;;;4878410;29;20053;-77
2022/12/02 18:53:44;;;;;;;45.72;16.95;;;;;;;;;;4868061;29;20140;-77
2022/12/02 18:56:10;;;;;;;43.10;16.42;;;;;;;;;;4871779;29;20057;-77
2022/12/02 18:58:36;;;;;;;43.08;15.98;;;;;;;;;;4871555;29;20488;-77
2022/12/02 19:01:08;;;;;;;44.65;16.23;;;;;;;;;;4870168;29;20546;-77
2022/12/02 19:03:35;;;;;;;45.00;17.50;;;;;;;;;;4886614;29;20559;-77
2022/12/02 19:06:01;;;;;;;43.22;17.05;;;;;;;;;;4867397;29;20053;-77
2022/12/02 19:08:27;;;;;;;48.38;17.27;;;;;;;;;;4888922;29;20065;-77
2022/12/02 19:10:54;;;;;;;45.17;17.52;;;;;;;;;;4867758;29;20096;-77
2022/12/02 19:13:21;;;;;;;50.10;17.98;;;;;;;;;;4884717;29;20543;-77
2022/12/02 19:15:47;;;;;;;45.80;16.92;;;;;;;;;;4886470;29;20632;-77
2022/12/02 19:18:13;;;;;;;48.80;19.10;;;;;;;;;;4890232;29;20057;-76
2022/12/02 19:20:40;;;;;;;44.83;17.92;;;;;;;;;;4879124;29;20061;-79
2022/12/02 19:23:06;;;;;;;43.38;17.83;;;;;;;;;;4876465;29;20057;-77
2022/12/02 19:25:32;;;;;;;44.85;16.75;;;;;;;;;;4872598;29;20085;-76
2022/12/02 19:28:05;;;;;;;47.83;17.90;;;;;;;;;;4888322;29;20531;-77
2022/12/02 19:30:32;;;;;;;45.20;16.95;;;;;;;;;;4887590;29;20057;-77
2022/12/02 19:32:58;;;;;;;45.75;17.17;;;;;;;;;;4888069;29;20483;-77
2022/12/02 19:35:24;;;;;;;45.13;17.60;;;;;;;;;;4871812;29;20061;-77
2022/12/02 19:37:51;;;;;;;43.28;15.93;;;;;;;;;;4887201;29;20258;-77
2022/12/02 19:40:18;;;;;;;44.22;15.82;;;;;;;;;;4872018;29;20152;-77
2022/12/02 19:42:44;;;;;;;41.45;14.75;;;;;;;;;;4877528;29;20057;-77
2022/12/02 19:45:12;;;;;;;39.28;15.27;;;;;;;;;;4871143;29;20337;-77
2022/12/02 19:47:38;;;;;;;40.10;14.82;;;;;;;;;;4886855;29;20604;-77
2022/12/02 19:50:05;;;;;;;43.60;15.63;;;;;;;;;;4869069;29;20079;-77
2022/12/02 19:52:32;;;;;;;41.95;15.13;;;;;;;;;;4873609;29;20140;-77
2022/12/02 19:54:58;;;;;;;40.00;14.60;;;;;;;;;;4864670;29;20152;-77
2022/12/02 19:57:25;;;;;;;41.03;15.20;;;;;;;;;;4871145;29;20834;-77
2022/12/02 19:59:51;;;;;;;36.00;13.00;;;;;;;;;;4880866;29;20053;-77
2022/12/02 20:02:17;;;;;;;33.33;11.80;;;;;;;;;;4857659;29;20053;-76
2022/12/02 20:04:44;;;;;;;31.38;12.35;;;;;;;;;;4890136;29;20611;-76
2022/12/02 20:07:10;;;;;;;33.05;13.10;;;;;;;;;;4886249;29;20069;-77
2022/12/02 20:09:36;;;;;;;31.63;12.85;;;;;;;;;;4863837;29;20068;-77
2022/12/02 20:12:03;;;;;;;29.20;12.02;;;;;;;;;;4871593;29;20052;-77
2022/12/02 20:14:29;;;;;;;29.98;11.25;;;;;;;;;;4888204;29;20065;-77
2022/12/02 20:16:56;;;;;;;28.67;11.85;;;;;;;;;;4870611;29;20081;-76
2022/12/02 20:19:22;;;;;;;24.20;9.63;;;;;;;;;;4878493;29;20068;-76
2022/12/02 20:21:48;;;;;;;27.33;9.98;;;;;;;;;;4872944;29;20063;-76
2022/12/02 20:24:15;;;;;;;22.83;9.55;;;;;;;;;;4864652;29;20141;-76
2022/12/02 20:26:41;;;;;;;24.17;9.93;;;;;;;;;;4871298;29;20073;-76
2022/12/02 20:29:08;;;;;;;22.92;8.95;;;;;;;;;;4869623;29;20053;-76
2022/12/02 20:31:34;;;;;;;23.55;9.98;;;;;;;;;;4887912;29;20079;-76
2022/12/02 20:34:01;;;;;;;26.30;9.15;;;;;;;;;;4875142;29;20265;-76
2022/12/02 20:36:27;;;;;;;24.85;9.80;;;;;;;;;;4893163;29;20155;-76
2022/12/02 20:38:54;;;;;;;24.70;9.95;;;;;;;;;;4873075;29;20060;-77
2022/12/02 20:41:20;;;;;;;25.42;9.90;;;;;;;;;;4871375;29;20530;-77
2022/12/02 20:43:50;;;;;;;28.15;10.05;;;;;;;;;;4869284;29;20065;-79
2022/12/02 20:46:16;;;;;;;26.05;10.43;;;;;;;;;;4887723;29;20071;-76
2022/12/02 20:48:43;;;;;;;24.05;10.05;;;;;;;;;;4881182;29;20065;-76
2022/12/02 20:51:09;;;;;;;22.40;9.95;;;;;;;;;;4867580;29;20164;-75
2022/12/02 20:53:35;;;;;;;30.05;12.38;;;;;;;;;;4876557;29;20061;-76
2022/12/02 20:56:02;;;;;;;34.92;10.75;;;;;;;;;;4867795;29;20067;-76
2022/12/02 20:58:28;;;;;;;26.10;10.60;;;;;;;;;;4888134;29;20053;-75
2022/12/02 21:00:54;;;;;;;26.92;10.32;;;;;;;;;;4869366;29;20571;-76
2022/12/02 21:03:21;;;;;;;27.77;10.75;;;;;;;;;;4867757;29;20117;-76
2022/12/02 21:05:47;;;;;;;29.50;11.40;;;;;;;;;;4877764;29;20060;-76
2022/12/02 21:08:14;;;;;;;26.27;10.60;;;;;;;;;;4897068;29;20140;-76
2022/12/02 21:10:40;;;;;;;25.42;10.65;;;;;;;;;;4883921;29;20057;-76
2022/12/02 21:13:07;;;;;;;29.73;10.45;;;;;;;;;;4889366;29;20057;-76
2022/12/02 21:15:33;;;;;;;24.85;10.10;;;;;;;;;;4886889;29;20056;-76
2022/12/02 21:17:59;;;;;;;28.42;11.20;;;;;;;;;;4862006;29;20563;-76
2022/12/02 21:20:26;;;;;;;32.13;11.75;;;;;;;;;;4890949;29;20589;-76
2022/12/02 21:22:53;;;;;;;27.08;10.18;;;;;;;;;;4888266;29;20135;-75
2022/12/02 21:25:19;;;;;;;28.73;10.77;;;;;;;;;;4875720;29;20546;-76
2022/12/02 21:27:45;;;;;;;28.73;10.30;;;;;;;;;;4872626;29;20052;-75
2022/12/02 21:30:12;;;;;;;31.27;11.50;;;;;;;;;;4894384;29;20057;-76
2022/12/02 21:32:39;;;;;;;25.75;10.32;;;;;;;;;;4878747;29;20057;-76
2022/12/02 21:35:05;;;;;;;26.08;9.77;;;;;;;;;;4880585;29;20064;-76
2022/12/02 21:37:35;;;;;;;30.10;11.75;;;;;;;;;;4887251;29;20068;-76
2022/12/02 21:40:01;;;;;;;29.80;11.00;;;;;;;;;;4885942;29;20067;-76
2022/12/02 21:42:27;;;;;;;24.60;10.45;;;;;;;;;;4890654;29;20072;-75
2022/12/02 21:44:54;;;;;;;25.67;9.55;;;;;;;;;;4868459;29;20065;-76
2022/12/02 21:47:20;;;;;;;25.13;10.32;;;;;;;;;;4886354;29;20065;-76
2022/12/02 21:49:46;;;;;;;22.05;8.85;;;;;;;;;;4872152;29;20057;-76
2022/12/02 21:52:14;;;;;;;28.98;10.65;;;;;;;;;;4880557;29;20137;-76
2022/12/02 21:54:41;;;;;;;25.60;9.05;;;;;;;;;;4890012;29;20060;-76
2022/12/02 21:57:08;;;;;;;29.10;10.30;;;;;;;;;;4871604;29;20152;-76
2022/12/02 21:59:34;;;;;;;28.30;10.70;;;;;;;;;;4865798;29;20511;-76
2022/12/02 22:02:00;;;;;;;24.92;9.35;;;;;;;;;;4897397;29;20175;-76
2022/12/02 22:04:29;;;;;;;22.85;9.15;;;;;;;;;;4874350;29;20057;-76
2022/12/02 22:07:38;;;;;;;22.98;10.00;;;;;;;;;;4908947;29;20132;-76
2022/12/02 22:09:44;;;;;;;25.55;10.15;;;;;;;;;;4888272;29;20092;-76
2022/12/02 22:12:10;;;;;;;28.98;9.48;;;;;;;;;;4871186;29;20064;-76
2022/12/02 22:14:36;;;;;;;28.02;9.77;;;;;;;;;;4889275;29;20503;-75
2022/12/02 22:17:02;;;;;;;24.90;9.15;;;;;;;;;;4898390;29;20089;-76
2022/12/02 22:19:29;;;;;;;22.75;9.70;;;;;;;;;;4868169;29;20057;-76
2022/12/02 22:21:55;;;;;;;25.90;9.65;;;;;;;;;;4889652;29;20091;-76
2022/12/02 22:24:21;;;;;;;23.80;9.32;;;;;;;;;;4870142;29;20061;-76
2022/12/02 22:26:48;;;;;;;20.60;8.60;;;;;;;;;;4889415;29;20523;-76
2022/12/02 22:29:14;;;;;;;25.25;9.95;;;;;;;;;;4866929;29;21245;-76
2022/12/02 22:31:40;;;;;;;27.50;8.90;;;;;;;;;;4884018;29;20071;-75
2022/12/02 22:34:07;;;;;;;25.70;9.30;;;;;;;;;;4872346;29;20065;-76
2022/12/02 22:36:33;;;;;;;24.38;9.40;;;;;;;;;;4890047;29;20461;-76
2022/12/02 22:39:00;;;;;;;26.25;10.05;;;;;;;;;;4872022;29;20064;-77
2022/12/02 22:41:26;;;;;;;26.08;9.40;;;;;;;;;;4884649;29;20181;-76
2022/12/02 22:43:52;;;;;;;20.75;8.10;;;;;;;;;;4889565;29;20058;-76
2022/12/02 22:46:18;;;;;;;23.77;9.88;;;;;;;;;;4872131;29;20649;-77
2022/12/02 22:48:45;;;;;;;25.48;9.75;;;;;;;;;;4880218;29;20138;-76
2022/12/02 22:51:11;;;;;;;22.02;9.45;;;;;;;;;;4868225;29;20507;-76
2022/12/02 22:53:37;;;;;;;29.38;10.48;;;;;;;;;;4872310;29;20513;-77